sensor_id;sensor_type;location;lat;lon;timestamp;temperature;humidity
680;DHT22;322;48.846;9.230;2023-01-10T00:00:21;5.90;99.90
680;DHT22;322;48.846;9.230;2023-01-10T00:02:48;5.80;99.90
680;DHT22;322;48.846;9.230;2023-01-10T00:05:15;5.80;99.90
680;DHT22;322;48.846;9.230;2023-01-10T00:07:42;5.80;99.90
680;DHT22;322;48.846;9.230;2023-01-10T00:10:10;5.80;99.90
680;DHT22;322;48.846;9.230;2023-01-10T00:12:37;5.80;99.90
680;DHT22;322;48.846;9.230;2023-01-10T00:15:22;5.80;99.90
680;DHT22;322;48.846;9.230;2023-01-10T00:17:49;5.80;99.90
680;DHT22;322;48.846;9.230;2023-01-10T00:20:17;5.80;99.90
680;DHT22;322;48.846;9.230;2023-01-10T00:22:44;5.80;99.90
680;DHT22;322;48.846;9.230;2023-01-10T00:25:11;5.80;99.90
680;DHT22;322;48.846;9.230;2023-01-10T00:27:38;5.80;99.90
680;DHT22;322;48.846;9.230;2023-01-10T00:30:07;5.90;99.90
680;DHT22;322;48.846;9.230;2023-01-10T00:32:41;5.90;99.90
680;DHT22;322;48.846;9.230;2023-01-10T00:35:08;5.90;99.90
680;DHT22;322;48.846;9.230;2023-01-10T00:37:37;5.90;99.90
680;DHT22;322;48.846;9.230;2023-01-10T00:40:05;5.90;99.90
680;DHT22;322;48.846;9.230;2023-01-10T00:42:34;5.80;99.90
680;DHT22;322;48.846;9.230;2023-01-10T00:45:18;5.80;99.90
680;DHT22;322;48.846;9.230;2023-01-10T00:47:48;5.90;99.90
680;DHT22;322;48.846;9.230;2023-01-10T00:50:15;5.90;99.90
680;DHT22;322;48.846;9.230;2023-01-10T00:52:42;5.90;99.90
680;DHT22;322;48.846;9.230;2023-01-10T00:55:09;5.90;99.90
680;DHT22;322;48.846;9.230;2023-01-10T00:57:36;5.90;99.90
680;DHT22;322;48.846;9.230;2023-01-10T01:00:03;5.90;99.90
680;DHT22;322;48.846;9.230;2023-01-10T01:02:32;6.00;99.90
680;DHT22;322;48.846;9.230;2023-01-10T01:05:00;6.00;99.90
680;DHT22;322;48.846;9.230;2023-01-10T01:07:27;6.00;99.90
680;DHT22;322;48.846;9.230;2023-01-10T01:09:53;6.00;99.90
680;DHT22;322;48.846;9.230;2023-01-10T01:12:38;6.00;99.90
680;DHT22;322;48.846;9.230;2023-01-10T01:15:06;6.00;99.90
680;DHT22;322;48.846;9.230;2023-01-10T01:17:32;6.00;99.90
680;DHT22;322;48.846;9.230;2023-01-10T01:20:01;5.90;99.90
680;DHT22;322;48.846;9.230;2023-01-10T01:22:28;5.90;99.90
680;DHT22;322;48.846;9.230;2023-01-10T01:24:54;5.80;99.90
680;DHT22;322;48.846;9.230;2023-01-10T01:27:21;5.80;99.90
680;DHT22;322;48.846;9.230;2023-01-10T01:29:48;5.80;99.90
680;DHT22;322;48.846;9.230;2023-01-10T01:32:15;5.70;99.90
680;DHT22;322;48.846;9.230;2023-01-10T01:34:42;5.70;99.90
680;DHT22;322;48.846;9.230;2023-01-10T01:37:10;5.70;99.90
680;DHT22;322;48.846;9.230;2023-01-10T01:39:37;5.70;99.90
680;DHT22;322;48.846;9.230;2023-01-10T01:42:04;5.70;99.90
680;DHT22;322;48.846;9.230;2023-01-10T01:44:34;5.70;99.90
680;DHT22;322;48.846;9.230;2023-01-10T01:47:05;5.70;99.90
680;DHT22;322;48.846;9.230;2023-01-10T01:49:36;5.70;99.90
680;DHT22;322;48.846;9.230;2023-01-10T01:52:10;5.70;99.90
680;DHT22;322;48.846;9.230;2023-01-10T01:54:38;5.70;99.90
680;DHT22;322;48.846;9.230;2023-01-10T01:57:08;5.80;99.90
680;DHT22;322;48.846;9.230;2023-01-10T01:59:38;5.90;99.90
680;DHT22;322;48.846;9.230;2023-01-10T02:02:09;5.90;99.90
680;DHT22;322;48.846;9.230;2023-01-10T02:04:41;5.90;99.90
680;DHT22;322;48.846;9.230;2023-01-10T02:07:10;6.00;99.90
680;DHT22;322;48.846;9.230;2023-01-10T02:09:44;6.00;99.90
680;DHT22;322;48.846;9.230;2023-01-10T02:12:11;5.90;99.90
680;DHT22;322;48.846;9.230;2023-01-10T02:14:41;6.00;99.90
680;DHT22;322;48.846;9.230;2023-01-10T02:17:09;5.90;99.90
680;DHT22;322;48.846;9.230;2023-01-10T02:19:46;5.90;99.90
680;DHT22;322;48.846;9.230;2023-01-10T02:22:48;5.90;99.90
680;DHT22;322;48.846;9.230;2023-01-10T02:25:57;5.90;99.90
680;DHT22;322;48.846;9.230;2023-01-10T02:28:57;5.90;99.90
680;DHT22;322;48.846;9.230;2023-01-10T02:31:53;5.80;99.90
680;DHT22;322;48.846;9.230;2023-01-10T02:34:26;5.80;99.90
680;DHT22;322;48.846;9.230;2023-01-10T02:36:59;5.80;99.90
680;DHT22;322;48.846;9.230;2023-01-10T02:39:32;5.70;99.90
680;DHT22;322;48.846;9.230;2023-01-10T02:42:06;5.70;99.90
680;DHT22;322;48.846;9.230;2023-01-10T02:44:36;5.70;99.90
680;DHT22;322;48.846;9.230;2023-01-10T02:47:08;5.60;99.90
680;DHT22;322;48.846;9.230;2023-01-10T02:49:41;5.60;99.90
680;DHT22;322;48.846;9.230;2023-01-10T02:52:08;5.60;99.90
680;DHT22;322;48.846;9.230;2023-01-10T02:54:35;5.60;99.90
680;DHT22;322;48.846;9.230;2023-01-10T02:57:26;5.60;99.90
680;DHT22;322;48.846;9.230;2023-01-10T03:00:14;5.60;99.90
680;DHT22;322;48.846;9.230;2023-01-10T03:03:15;5.60;99.90
680;DHT22;322;48.846;9.230;2023-01-10T03:05:51;5.60;99.90
680;DHT22;322;48.846;9.230;2023-01-10T03:08:26;5.50;99.90
680;DHT22;322;48.846;9.230;2023-01-10T03:10:57;5.50;99.90
680;DHT22;322;48.846;9.230;2023-01-10T03:13:27;5.50;99.90
680;DHT22;322;48.846;9.230;2023-01-10T03:15:56;5.50;99.90
680;DHT22;322;48.846;9.230;2023-01-10T03:18:31;5.50;99.90
680;DHT22;322;48.846;9.230;2023-01-10T03:20:59;5.50;99.90
680;DHT22;322;48.846;9.230;2023-01-10T03:23:31;5.60;99.90
680;DHT22;322;48.846;9.230;2023-01-10T03:25:59;5.50;99.90
680;DHT22;322;48.846;9.230;2023-01-10T03:28:29;5.60;99.90
680;DHT22;322;48.846;9.230;2023-01-10T03:31:01;5.50;99.90
680;DHT22;322;48.846;9.230;2023-01-10T03:33:32;5.50;99.90
680;DHT22;322;48.846;9.230;2023-01-10T03:36:10;5.50;99.90
680;DHT22;322;48.846;9.230;2023-01-10T03:38:44;5.40;99.90
680;DHT22;322;48.846;9.230;2023-01-10T03:41:14;5.40;99.90
680;DHT22;322;48.846;9.230;2023-01-10T03:43:46;5.40;99.90
680;DHT22;322;48.846;9.230;2023-01-10T03:46:35;5.30;99.90
680;DHT22;322;48.846;9.230;2023-01-10T03:49:05;5.30;99.90
680;DHT22;322;48.846;9.230;2023-01-10T03:51:33;5.30;99.90
680;DHT22;322;48.846;9.230;2023-01-10T03:54:03;5.30;99.90
680;DHT22;322;48.846;9.230;2023-01-10T03:56:30;5.30;99.90
680;DHT22;322;48.846;9.230;2023-01-10T03:58:57;5.30;99.90
680;DHT22;322;48.846;9.230;2023-01-10T04:01:24;5.30;99.90
680;DHT22;322;48.846;9.230;2023-01-10T04:03:51;5.30;99.90
680;DHT22;322;48.846;9.230;2023-01-10T04:06:19;5.30;99.90
680;DHT22;322;48.846;9.230;2023-01-10T04:08:46;5.30;99.90
680;DHT22;322;48.846;9.230;2023-01-10T04:11:13;5.20;99.90
680;DHT22;322;48.846;9.230;2023-01-10T04:13:40;5.20;99.90
680;DHT22;322;48.846;9.230;2023-01-10T04:16:07;5.10;99.90
680;DHT22;322;48.846;9.230;2023-01-10T04:18:34;5.10;99.90
680;DHT22;322;48.846;9.230;2023-01-10T04:21:00;5.00;99.90
680;DHT22;322;48.846;9.230;2023-01-10T04:23:29;4.90;99.90
680;DHT22;322;48.846;9.230;2023-01-10T04:25:55;4.90;99.90
680;DHT22;322;48.846;9.230;2023-01-10T04:28:22;4.90;99.90
680;DHT22;322;48.846;9.230;2023-01-10T04:30:49;4.90;99.90
680;DHT22;322;48.846;9.230;2023-01-10T04:33:16;4.90;99.90
680;DHT22;322;48.846;9.230;2023-01-10T04:35:46;4.90;99.90
680;DHT22;322;48.846;9.230;2023-01-10T04:38:13;4.80;99.90
680;DHT22;322;48.846;9.230;2023-01-10T04:40:42;4.80;99.90
680;DHT22;322;48.846;9.230;2023-01-10T04:43:10;4.80;99.90
680;DHT22;322;48.846;9.230;2023-01-10T04:45:36;4.90;99.90
680;DHT22;322;48.846;9.230;2023-01-10T04:48:04;4.80;99.90
680;DHT22;322;48.846;9.230;2023-01-10T04:50:31;4.80;99.90
680;DHT22;322;48.846;9.230;2023-01-10T04:52:58;4.90;99.90
680;DHT22;322;48.846;9.230;2023-01-10T04:55:24;4.90;99.90
680;DHT22;322;48.846;9.230;2023-01-10T04:57:53;4.80;99.90
680;DHT22;322;48.846;9.230;2023-01-10T05:00:20;4.90;99.90
680;DHT22;322;48.846;9.230;2023-01-10T05:02:46;4.90;99.90
680;DHT22;322;48.846;9.230;2023-01-10T05:05:13;4.90;99.90
680;DHT22;322;48.846;9.230;2023-01-10T05:07:40;4.90;99.90
680;DHT22;322;48.846;9.230;2023-01-10T05:10:08;4.90;99.90
680;DHT22;322;48.846;9.230;2023-01-10T05:12:35;4.90;99.90
680;DHT22;322;48.846;9.230;2023-01-10T05:15:04;5.00;99.90
680;DHT22;322;48.846;9.230;2023-01-10T05:17:32;5.10;99.90
680;DHT22;322;48.846;9.230;2023-01-10T05:19:58;5.10;99.90
680;DHT22;322;48.846;9.230;2023-01-10T05:22:25;5.10;99.90
680;DHT22;322;48.846;9.230;2023-01-10T05:24:52;5.10;99.90
680;DHT22;322;48.846;9.230;2023-01-10T05:27:19;5.20;99.90
680;DHT22;322;48.846;9.230;2023-01-10T05:29:46;5.20;99.90
680;DHT22;322;48.846;9.230;2023-01-10T05:32:14;5.20;99.90
680;DHT22;322;48.846;9.230;2023-01-10T05:34:41;5.30;99.90
680;DHT22;322;48.846;9.230;2023-01-10T05:37:08;5.40;99.90
680;DHT22;322;48.846;9.230;2023-01-10T05:39:35;5.40;99.90
680;DHT22;322;48.846;9.230;2023-01-10T05:42:04;5.40;99.90
680;DHT22;322;48.846;9.230;2023-01-10T05:44:31;5.40;99.90
680;DHT22;322;48.846;9.230;2023-01-10T05:46:58;5.50;99.90
680;DHT22;322;48.846;9.230;2023-01-10T05:49:26;5.50;99.90
680;DHT22;322;48.846;9.230;2023-01-10T05:51:53;5.60;99.90
680;DHT22;322;48.846;9.230;2023-01-10T05:54:19;5.60;99.90
680;DHT22;322;48.846;9.230;2023-01-10T05:56:46;5.60;99.90
680;DHT22;322;48.846;9.230;2023-01-10T05:59:13;5.60;99.90
680;DHT22;322;48.846;9.230;2023-01-10T06:01:40;5.60;99.90
680;DHT22;322;48.846;9.230;2023-01-10T06:04:07;5.60;99.90
680;DHT22;322;48.846;9.230;2023-01-10T06:06:35;5.60;99.90
680;DHT22;322;48.846;9.230;2023-01-10T06:09:02;5.60;99.90
680;DHT22;322;48.846;9.230;2023-01-10T06:11:28;5.60;99.90
680;DHT22;322;48.846;9.230;2023-01-10T06:13:56;5.60;99.90
680;DHT22;322;48.846;9.230;2023-01-10T06:16:23;5.60;99.90
680;DHT22;322;48.846;9.230;2023-01-10T06:18:50;5.70;99.90
680;DHT22;322;48.846;9.230;2023-01-10T06:21:16;5.70;99.90
680;DHT22;322;48.846;9.230;2023-01-10T06:23:45;5.70;99.90
680;DHT22;322;48.846;9.230;2023-01-10T06:26:11;5.70;99.90
680;DHT22;322;48.846;9.230;2023-01-10T06:28:38;5.70;99.90
680;DHT22;322;48.846;9.230;2023-01-10T06:31:06;5.70;99.90
680;DHT22;322;48.846;9.230;2023-01-10T06:33:33;5.70;99.90
680;DHT22;322;48.846;9.230;2023-01-10T06:36:00;5.60;99.90
680;DHT22;322;48.846;9.230;2023-01-10T06:38:27;5.60;99.90
680;DHT22;322;48.846;9.230;2023-01-10T06:40:55;5.50;99.90
680;DHT22;322;48.846;9.230;2023-01-10T06:43:22;5.60;99.90
680;DHT22;322;48.846;9.230;2023-01-10T06:45:49;5.60;99.90
680;DHT22;322;48.846;9.230;2023-01-10T06:48:16;5.60;99.90
680;DHT22;322;48.846;9.230;2023-01-10T06:50:43;5.70;99.90
680;DHT22;322;48.846;9.230;2023-01-10T06:53:09;5.60;99.90
680;DHT22;322;48.846;9.230;2023-01-10T06:55:36;5.60;99.90
680;DHT22;322;48.846;9.230;2023-01-10T06:58:04;5.60;99.90
680;DHT22;322;48.846;9.230;2023-01-10T07:00:31;5.60;99.90
680;DHT22;322;48.846;9.230;2023-01-10T07:02:59;5.60;99.90
680;DHT22;322;48.846;9.230;2023-01-10T07:05:26;5.70;99.90
680;DHT22;322;48.846;9.230;2023-01-10T07:07:54;5.70;99.90
680;DHT22;322;48.846;9.230;2023-01-10T07:10:22;5.70;99.90
680;DHT22;322;48.846;9.230;2023-01-10T07:12:49;5.70;99.90
680;DHT22;322;48.846;9.230;2023-01-10T07:15:17;5.70;99.90
680;DHT22;322;48.846;9.230;2023-01-10T07:17:44;5.80;99.90
680;DHT22;322;48.846;9.230;2023-01-10T07:20:11;5.80;99.90
680;DHT22;322;48.846;9.230;2023-01-10T07:22:38;5.80;99.90
680;DHT22;322;48.846;9.230;2023-01-10T07:25:05;5.80;99.90
680;DHT22;322;48.846;9.230;2023-01-10T07:27:32;5.80;99.90
680;DHT22;322;48.846;9.230;2023-01-10T07:29:59;5.80;99.90
680;DHT22;322;48.846;9.230;2023-01-10T07:32:27;5.80;99.90
680;DHT22;322;48.846;9.230;2023-01-10T07:34:54;5.80;99.90
680;DHT22;322;48.846;9.230;2023-01-10T07:37:21;5.80;99.90
680;DHT22;322;48.846;9.230;2023-01-10T07:39:48;5.80;99.90
680;DHT22;322;48.846;9.230;2023-01-10T07:42:15;5.90;99.90
680;DHT22;322;48.846;9.230;2023-01-10T07:44:41;5.90;99.90
680;DHT22;322;48.846;9.230;2023-01-10T07:47:08;5.90;99.90
680;DHT22;322;48.846;9.230;2023-01-10T07:49:36;5.90;99.90
680;DHT22;322;48.846;9.230;2023-01-10T07:52:03;5.90;99.90
680;DHT22;322;48.846;9.230;2023-01-10T07:54:33;5.90;99.90
680;DHT22;322;48.846;9.230;2023-01-10T07:57:00;6.00;99.90
680;DHT22;322;48.846;9.230;2023-01-10T07:59:27;6.10;99.90
680;DHT22;322;48.846;9.230;2023-01-10T08:01:53;6.10;99.90
680;DHT22;322;48.846;9.230;2023-01-10T08:04:20;6.20;99.90
680;DHT22;322;48.846;9.230;2023-01-10T08:06:48;6.20;99.90
680;DHT22;322;48.846;9.230;2023-01-10T08:09:16;6.20;99.90
680;DHT22;322;48.846;9.230;2023-01-10T08:11:42;6.30;99.90
680;DHT22;322;48.846;9.230;2023-01-10T08:14:09;6.30;99.90
680;DHT22;322;48.846;9.230;2023-01-10T08:16:36;6.30;99.90
680;DHT22;322;48.846;9.230;2023-01-10T08:19:03;6.40;99.90
680;DHT22;322;48.846;9.230;2023-01-10T08:21:30;6.40;99.90
680;DHT22;322;48.846;9.230;2023-01-10T08:23:58;6.40;99.90
680;DHT22;322;48.846;9.230;2023-01-10T08:26:25;6.50;99.90
680;DHT22;322;48.846;9.230;2023-01-10T08:28:52;6.50;99.90
680;DHT22;322;48.846;9.230;2023-01-10T08:31:19;6.60;99.90
680;DHT22;322;48.846;9.230;2023-01-10T08:33:45;6.60;99.90
680;DHT22;322;48.846;9.230;2023-01-10T08:36:16;6.50;99.90
680;DHT22;322;48.846;9.230;2023-01-10T08:38:44;6.50;99.90
680;DHT22;322;48.846;9.230;2023-01-10T08:41:12;6.50;99.90
680;DHT22;322;48.846;9.230;2023-01-10T08:43:39;6.60;99.90
680;DHT22;322;48.846;9.230;2023-01-10T08:46:06;6.60;99.90
680;DHT22;322;48.846;9.230;2023-01-10T08:48:33;6.60;99.90
680;DHT22;322;48.846;9.230;2023-01-10T08:51:04;6.70;99.90
680;DHT22;322;48.846;9.230;2023-01-10T08:53:31;6.70;99.90
680;DHT22;322;48.846;9.230;2023-01-10T08:55:58;6.70;99.90
680;DHT22;322;48.846;9.230;2023-01-10T08:58:26;6.70;99.90
680;DHT22;322;48.846;9.230;2023-01-10T09:00:53;6.80;99.90
680;DHT22;322;48.846;9.230;2023-01-10T09:03:20;6.90;99.90
680;DHT22;322;48.846;9.230;2023-01-10T09:05:47;7.00;99.90
680;DHT22;322;48.846;9.230;2023-01-10T09:08:13;6.90;99.90
680;DHT22;322;48.846;9.230;2023-01-10T09:10:40;6.90;99.90
680;DHT22;322;48.846;9.230;2023-01-10T09:13:07;6.90;99.90
680;DHT22;322;48.846;9.230;2023-01-10T09:15:36;6.90;99.90
680;DHT22;322;48.846;9.230;2023-01-10T09:18:06;6.90;99.90
680;DHT22;322;48.846;9.230;2023-01-10T09:20:34;7.00;99.90
680;DHT22;322;48.846;9.230;2023-01-10T09:23:04;7.10;99.90
680;DHT22;322;48.846;9.230;2023-01-10T09:25:32;7.20;99.90
680;DHT22;322;48.846;9.230;2023-01-10T09:28:01;7.40;99.90
680;DHT22;322;48.846;9.230;2023-01-10T09:30:29;7.40;99.90
680;DHT22;322;48.846;9.230;2023-01-10T09:32:58;7.50;99.90
680;DHT22;322;48.846;9.230;2023-01-10T09:35:26;7.50;99.90
680;DHT22;322;48.846;9.230;2023-01-10T09:37:53;7.50;99.90
680;DHT22;322;48.846;9.230;2023-01-10T09:40:27;7.60;99.90
680;DHT22;322;48.846;9.230;2023-01-10T09:43:04;7.60;99.90
680;DHT22;322;48.846;9.230;2023-01-10T09:45:38;7.70;99.90
680;DHT22;322;48.846;9.230;2023-01-10T09:48:15;7.90;99.90
680;DHT22;322;48.846;9.230;2023-01-10T09:50:54;7.80;99.90
680;DHT22;322;48.846;9.230;2023-01-10T09:53:28;7.80;99.90
680;DHT22;322;48.846;9.230;2023-01-10T09:55:57;7.80;99.90
680;DHT22;322;48.846;9.230;2023-01-10T09:58:27;7.80;99.90
680;DHT22;322;48.846;9.230;2023-01-10T10:00:56;7.80;99.90
680;DHT22;322;48.846;9.230;2023-01-10T10:03:29;7.70;99.90
680;DHT22;322;48.846;9.230;2023-01-10T10:05:56;7.70;99.90
680;DHT22;322;48.846;9.230;2023-01-10T10:08:24;7.70;99.90
680;DHT22;322;48.846;9.230;2023-01-10T10:11:00;7.60;99.90
680;DHT22;322;48.846;9.230;2023-01-10T10:13:39;7.60;99.90
680;DHT22;322;48.846;9.230;2023-01-10T10:16:17;7.60;99.90
680;DHT22;322;48.846;9.230;2023-01-10T10:18:59;7.60;99.90
680;DHT22;322;48.846;9.230;2023-01-10T10:21:34;7.70;99.90
680;DHT22;322;48.846;9.230;2023-01-10T10:24:23;7.80;99.90
680;DHT22;322;48.846;9.230;2023-01-10T10:26:56;7.70;99.90
680;DHT22;322;48.846;9.230;2023-01-10T10:32:43;7.50;99.90
680;DHT22;322;48.846;9.230;2023-01-10T10:35:25;7.60;99.90
680;DHT22;322;48.846;9.230;2023-01-10T10:37:55;7.70;99.90
680;DHT22;322;48.846;9.230;2023-01-10T10:40:24;7.70;99.90
680;DHT22;322;48.846;9.230;2023-01-10T10:42:55;7.70;99.90
680;DHT22;322;48.846;9.230;2023-01-10T10:45:31;8.00;99.90
680;DHT22;322;48.846;9.230;2023-01-10T10:48:11;8.80;99.90
680;DHT22;322;48.846;9.230;2023-01-10T10:50:48;9.20;99.90
680;DHT22;322;48.846;9.230;2023-01-10T10:53:15;9.10;99.90
680;DHT22;322;48.846;9.230;2023-01-10T10:55:43;9.00;99.90
680;DHT22;322;48.846;9.230;2023-01-10T10:58:11;9.00;99.90
680;DHT22;322;48.846;9.230;2023-01-10T11:00:40;9.00;99.90
680;DHT22;322;48.846;9.230;2023-01-10T11:03:19;9.00;99.90
680;DHT22;322;48.846;9.230;2023-01-10T11:05:50;8.70;99.90
680;DHT22;322;48.846;9.230;2023-01-10T11:08:19;8.60;99.90
680;DHT22;322;48.846;9.230;2023-01-10T11:10:49;8.60;99.90
680;DHT22;322;48.846;9.230;2023-01-10T11:13:26;8.60;99.90
680;DHT22;322;48.846;9.230;2023-01-10T11:15:55;8.60;99.90
680;DHT22;322;48.846;9.230;2023-01-10T11:18:24;8.50;99.90
680;DHT22;322;48.846;9.230;2023-01-10T11:20:55;8.50;99.90
680;DHT22;322;48.846;9.230;2023-01-10T11:23:32;8.50;99.90
680;DHT22;322;48.846;9.230;2023-01-10T11:26:02;8.50;99.90
680;DHT22;322;48.846;9.230;2023-01-10T11:28:31;8.60;99.90
680;DHT22;322;48.846;9.230;2023-01-10T11:30:59;8.60;99.90
680;DHT22;322;48.846;9.230;2023-01-10T11:33:29;8.50;99.90
680;DHT22;322;48.846;9.230;2023-01-10T11:36:00;8.50;99.90
680;DHT22;322;48.846;9.230;2023-01-10T11:38:28;8.50;99.90
680;DHT22;322;48.846;9.230;2023-01-10T11:40:58;8.60;99.90
680;DHT22;322;48.846;9.230;2023-01-10T11:43:28;8.80;99.90
680;DHT22;322;48.846;9.230;2023-01-10T11:45:56;8.90;99.90
680;DHT22;322;48.846;9.230;2023-01-10T11:48:30;8.90;99.90
680;DHT22;322;48.846;9.230;2023-01-10T11:51:00;8.80;99.90
680;DHT22;322;48.846;9.230;2023-01-10T11:53:37;8.70;99.90
680;DHT22;322;48.846;9.230;2023-01-10T11:56:05;8.70;99.90
680;DHT22;322;48.846;9.230;2023-01-10T11:58:34;8.60;99.90
680;DHT22;322;48.846;9.230;2023-01-10T12:01:03;8.40;99.90
680;DHT22;322;48.846;9.230;2023-01-10T12:03:32;8.00;99.90
680;DHT22;322;48.846;9.230;2023-01-10T12:06:05;7.80;99.90
680;DHT22;322;48.846;9.230;2023-01-10T12:08:34;7.60;99.90
680;DHT22;322;48.846;9.230;2023-01-10T12:11:05;7.60;99.90
680;DHT22;322;48.846;9.230;2023-01-10T12:13:47;7.50;99.90
680;DHT22;322;48.846;9.230;2023-01-10T12:16:20;7.40;99.90
680;DHT22;322;48.846;9.230;2023-01-10T12:18:48;7.30;99.90
680;DHT22;322;48.846;9.230;2023-01-10T12:21:20;7.20;99.90
680;DHT22;322;48.846;9.230;2023-01-10T12:23:50;7.30;99.90
680;DHT22;322;48.846;9.230;2023-01-10T12:26:18;7.30;99.90
680;DHT22;322;48.846;9.230;2023-01-10T12:28:49;7.40;99.90
680;DHT22;322;48.846;9.230;2023-01-10T12:31:19;7.40;99.90
680;DHT22;322;48.846;9.230;2023-01-10T12:33:52;7.50;99.90
680;DHT22;322;48.846;9.230;2023-01-10T12:36:31;7.60;99.90
680;DHT22;322;48.846;9.230;2023-01-10T12:39:06;7.70;99.90
680;DHT22;322;48.846;9.230;2023-01-10T12:44:59;8.10;99.90
680;DHT22;322;48.846;9.230;2023-01-10T12:47:32;8.40;99.90
680;DHT22;322;48.846;9.230;2023-01-10T12:50:04;8.50;99.90
680;DHT22;322;48.846;9.230;2023-01-10T12:52:38;8.60;99.90
680;DHT22;322;48.846;9.230;2023-01-10T12:55:12;8.50;99.90
680;DHT22;322;48.846;9.230;2023-01-10T12:57:40;8.50;99.90
680;DHT22;322;48.846;9.230;2023-01-10T13:00:17;8.40;99.90
680;DHT22;322;48.846;9.230;2023-01-10T13:02:46;8.20;99.90
680;DHT22;322;48.846;9.230;2023-01-10T13:05:18;8.30;99.90
680;DHT22;322;48.846;9.230;2023-01-10T13:07:48;8.20;99.90
680;DHT22;322;48.846;9.230;2023-01-10T13:10:18;8.20;99.90
680;DHT22;322;48.846;9.230;2023-01-10T13:12:51;8.20;99.90
680;DHT22;322;48.846;9.230;2023-01-10T13:15:22;8.20;99.90
680;DHT22;322;48.846;9.230;2023-01-10T13:17:52;8.20;99.90
680;DHT22;322;48.846;9.230;2023-01-10T13:20:29;8.20;99.90
680;DHT22;322;48.846;9.230;2023-01-10T13:26:03;8.10;99.90
680;DHT22;322;48.846;9.230;2023-01-10T13:28:32;8.10;99.90
680;DHT22;322;48.846;9.230;2023-01-10T13:31:00;8.10;99.90
680;DHT22;322;48.846;9.230;2023-01-10T13:33:30;8.10;99.90
680;DHT22;322;48.846;9.230;2023-01-10T13:36:07;8.10;99.90
680;DHT22;322;48.846;9.230;2023-01-10T13:38:43;8.10;99.90
680;DHT22;322;48.846;9.230;2023-01-10T13:41:11;8.10;99.90
680;DHT22;322;48.846;9.230;2023-01-10T13:44:01;8.20;99.90
680;DHT22;322;48.846;9.230;2023-01-10T13:46:54;8.30;99.90
680;DHT22;322;48.846;9.230;2023-01-10T13:52:37;8.40;99.90
680;DHT22;322;48.846;9.230;2023-01-10T13:55:30;8.70;99.90
680;DHT22;322;48.846;9.230;2023-01-10T13:58:02;8.90;99.90
680;DHT22;322;48.846;9.230;2023-01-10T14:00:54;9.00;99.90
680;DHT22;322;48.846;9.230;2023-01-10T14:03:50;9.00;99.90
680;DHT22;322;48.846;9.230;2023-01-10T14:06:33;8.80;99.90
680;DHT22;322;48.846;9.230;2023-01-10T14:09:38;8.80;99.90
680;DHT22;322;48.846;9.230;2023-01-10T14:12:16;8.80;99.90
680;DHT22;322;48.846;9.230;2023-01-10T14:14:51;9.00;99.90
680;DHT22;322;48.846;9.230;2023-01-10T14:17:22;9.10;99.90
680;DHT22;322;48.846;9.230;2023-01-10T14:19:59;9.00;99.90
680;DHT22;322;48.846;9.230;2023-01-10T14:22:29;9.00;99.90
680;DHT22;322;48.846;9.230;2023-01-10T14:24:58;9.00;99.90
680;DHT22;322;48.846;9.230;2023-01-10T14:27:36;9.00;99.90
680;DHT22;322;48.846;9.230;2023-01-10T14:30:05;8.90;99.90
680;DHT22;322;48.846;9.230;2023-01-10T14:32:34;8.80;99.90
680;DHT22;322;48.846;9.230;2023-01-10T14:35:05;8.70;99.90
680;DHT22;322;48.846;9.230;2023-01-10T14:37:37;8.60;99.90
680;DHT22;322;48.846;9.230;2023-01-10T14:40:14;8.50;99.90
680;DHT22;322;48.846;9.230;2023-01-10T14:42:45;8.30;99.90
680;DHT22;322;48.846;9.230;2023-01-10T14:45:19;8.20;99.90
680;DHT22;322;48.846;9.230;2023-01-10T14:47:49;8.10;99.90
680;DHT22;322;48.846;9.230;2023-01-10T14:50:23;8.10;99.90
680;DHT22;322;48.846;9.230;2023-01-10T14:52:53;8.00;99.90
680;DHT22;322;48.846;9.230;2023-01-10T14:55:21;7.80;99.90
680;DHT22;322;48.846;9.230;2023-01-10T14:57:57;7.70;99.90
680;DHT22;322;48.846;9.230;2023-01-10T15:00:26;7.70;99.90
680;DHT22;322;48.846;9.230;2023-01-10T15:02:54;7.70;99.90
680;DHT22;322;48.846;9.230;2023-01-10T15:05:23;7.60;99.90
680;DHT22;322;48.846;9.230;2023-01-10T15:07:50;7.50;99.90
680;DHT22;322;48.846;9.230;2023-01-10T15:10:22;7.60;99.90
680;DHT22;322;48.846;9.230;2023-01-10T15:12:53;7.50;99.90
680;DHT22;322;48.846;9.230;2023-01-10T15:15:26;7.40;99.90
680;DHT22;322;48.846;9.230;2023-01-10T15:17:55;7.40;99.90
680;DHT22;322;48.846;9.230;2023-01-10T15:20:23;7.40;99.90
680;DHT22;322;48.846;9.230;2023-01-10T15:22:54;7.20;99.90
680;DHT22;322;48.846;9.230;2023-01-10T15:25:27;7.20;99.90
680;DHT22;322;48.846;9.230;2023-01-10T15:27:55;7.20;99.90
680;DHT22;322;48.846;9.230;2023-01-10T15:30:25;7.20;99.90
680;DHT22;322;48.846;9.230;2023-01-10T15:32:54;7.20;99.90
680;DHT22;322;48.846;9.230;2023-01-10T15:35:25;7.10;99.90
680;DHT22;322;48.846;9.230;2023-01-10T15:37:55;7.10;99.90
680;DHT22;322;48.846;9.230;2023-01-10T15:40:27;7.10;99.90
680;DHT22;322;48.846;9.230;2023-01-10T15:43:10;7.00;99.90
680;DHT22;322;48.846;9.230;2023-01-10T15:45:39;7.10;99.90
680;DHT22;322;48.846;9.230;2023-01-10T15:48:24;7.10;99.90
680;DHT22;322;48.846;9.230;2023-01-10T15:50:56;7.00;99.90
680;DHT22;322;48.846;9.230;2023-01-10T15:53:48;7.00;99.90
680;DHT22;322;48.846;9.230;2023-01-10T15:56:17;7.00;99.90
680;DHT22;322;48.846;9.230;2023-01-10T15:58:47;6.90;99.90
680;DHT22;322;48.846;9.230;2023-01-10T16:01:16;6.80;99.90
680;DHT22;322;48.846;9.230;2023-01-10T16:03:44;6.70;99.90
680;DHT22;322;48.846;9.230;2023-01-10T16:06:23;6.70;99.90
680;DHT22;322;48.846;9.230;2023-01-10T16:08:51;6.70;99.90
680;DHT22;322;48.846;9.230;2023-01-10T16:11:21;6.70;99.90
680;DHT22;322;48.846;9.230;2023-01-10T16:14:03;6.70;99.90
680;DHT22;322;48.846;9.230;2023-01-10T16:16:31;6.60;99.90
680;DHT22;322;48.846;9.230;2023-01-10T16:18:58;6.50;99.90
680;DHT22;322;48.846;9.230;2023-01-10T16:21:26;6.50;99.90
680;DHT22;322;48.846;9.230;2023-01-10T16:23:54;6.50;99.90
680;DHT22;322;48.846;9.230;2023-01-10T16:26:21;6.40;99.90
680;DHT22;322;48.846;9.230;2023-01-10T16:28:48;6.30;99.90
680;DHT22;322;48.846;9.230;2023-01-10T16:31:15;6.20;99.90
680;DHT22;322;48.846;9.230;2023-01-10T16:33:43;6.20;99.90
680;DHT22;322;48.846;9.230;2023-01-10T16:36:14;6.10;99.90
680;DHT22;322;48.846;9.230;2023-01-10T16:38:42;6.10;99.90
680;DHT22;322;48.846;9.230;2023-01-10T16:41:10;6.10;99.90
680;DHT22;322;48.846;9.230;2023-01-10T16:43:55;6.00;99.90
680;DHT22;322;48.846;9.230;2023-01-10T16:46:22;6.00;99.90
680;DHT22;322;48.846;9.230;2023-01-10T16:48:50;6.00;99.90
680;DHT22;322;48.846;9.230;2023-01-10T16:51:19;6.00;99.90
680;DHT22;322;48.846;9.230;2023-01-10T16:53:46;6.00;99.90
680;DHT22;322;48.846;9.230;2023-01-10T16:56:15;6.10;99.90
680;DHT22;322;48.846;9.230;2023-01-10T16:58:42;6.10;99.90
680;DHT22;322;48.846;9.230;2023-01-10T17:01:12;6.20;99.90
680;DHT22;322;48.846;9.230;2023-01-10T17:03:40;6.20;99.90
680;DHT22;322;48.846;9.230;2023-01-10T17:06:10;6.20;99.90
680;DHT22;322;48.846;9.230;2023-01-10T17:08:37;6.20;99.90
680;DHT22;322;48.846;9.230;2023-01-10T17:11:06;6.10;99.90
680;DHT22;322;48.846;9.230;2023-01-10T17:13:36;6.20;99.90
680;DHT22;322;48.846;9.230;2023-01-10T17:16:04;6.20;99.90
680;DHT22;322;48.846;9.230;2023-01-10T17:18:31;6.20;99.90
680;DHT22;322;48.846;9.230;2023-01-10T17:20:58;6.30;99.90
680;DHT22;322;48.846;9.230;2023-01-10T17:23:27;6.30;99.90
680;DHT22;322;48.846;9.230;2023-01-10T17:25:57;6.30;99.90